Time;durP1;ratioP1;P1;durP2;ratioP2;P2;SDS_P1;SDS_P2;PMS_P1;PMS_P2;Temp;Humidity;BMP_temperature;BMP_pressure;BME280_temperature;BME280_humidity;BME280_pressure;Samples;Min_cycle;Max_cycle;Signal;HPM_P1;HPM_P2
2024/01/31 00:01:05;;;;;;;0.70;0.70;;;;;;;9.73;100.00;101807.63;5010358;28;20108;-67
2024/01/31 00:03:30;;;;;;;0.80;0.80;;;;;;;9.72;100.00;101810.28;5011917;28;20177;-68
2024/01/31 00:05:56;;;;;;;0.70;0.70;;;;;;;9.70;100.00;101807.63;5014660;28;20353;-68
2024/01/31 00:08:21;;;;;;;0.70;0.70;;;;;;;9.69;100.00;101808.50;5008947;28;20057;-68
2024/01/31 00:10:46;;;;;;;0.80;0.80;;;;;;;9.67;100.00;101820.91;5009408;28;20033;-68
2024/01/31 00:13:12;;;;;;;0.60;0.60;;;;;;;9.47;100.00;101766.91;5011623;28;20034;-68
2024/01/31 00:15:37;;;;;;;0.70;0.70;;;;;;;9.65;100.00;101806.75;5018222;28;20029;-68
2024/01/31 00:18:03;;;;;;;0.70;0.70;;;;;;;9.67;100.00;101807.63;5011377;28;20111;-67
2024/01/31 00:20:30;;;;;;;0.70;0.70;;;;;;;9.62;100.00;101801.41;5011943;28;20086;-68
2024/01/31 00:22:55;;;;;;;0.70;0.70;;;;;;;9.65;100.00;101812.06;5009516;28;20540;-68
2024/01/31 00:25:21;;;;;;;0.70;0.70;;;;;;;9.65;100.00;101804.09;5012196;28;20065;-68
2024/01/31 00:27:47;;;;;;;0.80;0.80;;;;;;;9.43;100.00;101765.13;5021648;28;20062;-68
2024/01/31 00:30:13;;;;;;;0.70;0.70;;;;;;;9.67;100.00;101807.63;5009602;28;20061;-68
2024/01/31 00:32:38;;;;;;;0.80;0.80;;;;;;;9.66;100.00;101803.19;5007256;28;20036;-67
2024/01/31 00:35:04;;;;;;;0.80;0.80;;;;;;;9.48;100.00;101776.66;4992210;28;20844;-68
2024/01/31 00:37:29;;;;;;;0.70;0.70;;;;;;;9.67;100.00;101802.31;5011291;28;20036;-68
2024/01/31 00:39:55;;;;;;;0.70;0.70;;;;;;;9.69;100.00;101805.84;5006806;28;20806;-68
2024/01/31 00:42:20;;;;;;;0.80;0.80;;;;;;;9.68;100.00;101809.41;5003651;28;20080;-68
2024/01/31 00:44:46;;;;;;;0.65;0.65;;;;;;;9.71;100.00;101806.75;5007657;28;20041;-68
2024/01/31 00:47:12;;;;;;;0.80;0.80;;;;;;;9.71;100.00;101808.50;5004251;28;20033;-68
2024/01/31 00:49:37;;;;;;;0.70;0.70;;;;;;;9.72;100.00;101804.97;5014241;28;20033;-68
2024/01/31 00:52:03;;;;;;;0.70;0.70;;;;;;;9.75;100.00;101808.50;5019144;28;20105;-67
2024/01/31 00:54:28;;;;;;;0.70;0.70;;;;;;;9.72;100.00;101805.84;5020136;28;20111;-67
2024/01/31 00:56:54;;;;;;;0.70;0.70;;;;;;;9.77;100.00;101809.38;5025131;28;20025;-68
2024/01/31 00:59:20;;;;;;;0.80;0.80;;;;;;;9.80;100.00;101809.38;5026363;28;20484;-68
2024/01/31 01:01:45;;;;;;;0.80;0.80;;;;;;;9.84;100.00;101811.16;5021044;28;20037;-68
2024/01/31 01:04:11;;;;;;;0.80;0.80;;;;;;;9.86;100.00;101817.38;5021885;28;20029;-68
2024/01/31 01:06:39;;;;;;;0.75;0.75;;;;;;;9.86;100.00;101812.06;4999405;28;20042;-67
2024/01/31 01:09:05;;;;;;;0.70;0.70;;;;;;;9.68;100.00;101788.16;4988606;28;20543;-67
2024/01/31 01:11:31;;;;;;;0.80;0.80;;;;;;;9.81;100.00;101811.16;4992019;28;20117;-68
2024/01/31 01:13:56;;;;;;;0.80;0.80;;;;;;;9.76;100.00;101812.94;5004426;28;20476;-68
2024/01/31 01:16:22;;;;;;;0.80;0.80;;;;;;;9.73;100.00;101812.94;4997637;28;20030;-68
2024/01/31 01:18:47;;;;;;;0.80;0.80;;;;;;;9.71;100.00;101808.50;4988312;28;20053;-68
2024/01/31 01:21:12;;;;;;;0.80;0.80;;;;;;;9.61;100.00;101797.00;4987029;28;20030;-68
2024/01/31 01:23:39;;;;;;;0.73;0.73;;;;;;;9.70;100.00;101818.28;4988589;28;20475;-67
2024/01/31 01:26:04;;;;;;;0.70;0.70;;;;;;;9.68;100.00;101812.06;4986649;28;20117;-67
2024/01/31 01:28:30;;;;;;;0.80;0.80;;;;;;;9.70;100.00;101812.06;4985302;28;20105;-68
2024/01/31 01:30:55;;;;;;;0.80;0.80;;;;;;;9.76;100.00;101810.28;4975649;28;20103;-68
2024/01/31 01:33:21;;;;;;;0.70;0.70;;;;;;;9.74;100.00;101809.38;4980410;28;20038;-66
2024/01/31 01:35:46;;;;;;;0.70;0.70;;;;;;;9.73;100.00;101802.31;4987746;28;20023;-68
2024/01/31 01:38:12;;;;;;;0.80;0.80;;;;;;;9.75;100.00;101810.28;4977161;28;20063;-68
2024/01/31 01:40:44;;;;;;;0.70;0.70;;;;;;;9.78;100.00;101805.88;4980615;28;20023;-67
2024/01/31 01:43:20;;;;;;;0.70;0.70;;;;;;;9.63;100.00;101784.63;4977997;28;20062;-68
2024/01/31 01:45:46;;;;;;;0.80;0.80;;;;;;;9.86;100.00;101809.38;4984058;28;20081;-68
2024/01/31 01:48:18;;;;;;;0.70;0.70;;;;;;;9.82;100.00;101807.59;4978485;28;20022;-68
2024/01/31 01:50:45;;;;;;;0.70;0.70;;;;;;;9.81;100.00;101810.28;4985922;28;20053;-68
2024/01/31 01:53:11;;;;;;;0.80;0.80;;;;;;;9.85;100.00;101802.28;4986691;28;20026;-67
2024/01/31 01:55:39;;;;;;;0.70;0.70;;;;;;;9.89;100.00;101797.84;4987447;28;20029;-68
2024/01/31 01:58:04;;;;;;;0.75;0.75;;;;;;;9.94;100.00;101801.41;4987034;28;20030;-68
2024/01/31 02:00:38;;;;;;;0.70;0.70;;;;;;;9.91;100.00;101786.34;4988479;28;20531;-68
2024/01/31 02:03:06;;;;;;;0.70;0.70;;;;;;;9.71;100.00;101756.25;4988588;28;20034;-68
2024/01/31 02:05:36;;;;;;;0.80;0.80;;;;;;;9.93;100.00;101784.59;4988942;28;20034;-68
2024/01/31 02:08:02;;;;;;;0.80;0.80;;;;;;;9.93;100.00;101787.25;5005351;28;20054;-67
2024/01/31 02:10:27;;;;;;;0.80;0.80;;;;;;;9.96;100.00;101794.31;5007815;28;20057;-68
2024/01/31 02:12:53;;;;;;;0.75;0.75;;;;;;;9.96;100.00;101791.66;4999891;28;20092;-68
2024/01/31 02:15:18;;;;;;;0.70;0.70;;;;;;;9.94;100.00;101798.75;4990295;28;20392;-68
2024/01/31 02:17:44;;;;;;;0.70;0.70;;;;;;;9.91;100.00;101796.09;5008089;28;20045;-68
2024/01/31 02:20:15;;;;;;;0.60;0.60;;;;;;;9.85;100.00;101802.28;5005637;28;20041;-68
2024/01/31 02:22:42;;;;;;;0.80;0.80;;;;;;;9.60;100.00;101758.06;5004934;28;20030;-68
2024/01/31 02:25:14;;;;;;;0.80;0.80;;;;;;;9.76;100.00;101797.00;4987974;28;20030;-68
2024/01/31 02:27:40;;;;;;;0.70;0.70;;;;;;;9.71;100.00;101793.47;4987330;28;20026;-68
2024/01/31 02:30:07;;;;;;;0.77;0.77;;;;;;;9.75;100.00;101789.88;5008443;28;20025;-68
2024/01/31 02:32:33;;;;;;;0.70;0.70;;;;;;;9.52;100.00;101757.19;5009025;28;20041;-68
2024/01/31 02:34:58;;;;;;;0.80;0.80;;;;;;;9.75;100.00;101784.56;5007839;28;20030;-68
2024/01/31 02:37:24;;;;;;;0.70;0.70;;;;;;;9.32;100.00;101727.09;4991500;28;20029;-68
2024/01/31 02:39:49;;;;;;;0.80;0.80;;;;;;;9.65;100.00;101788.16;5008478;28;20124;-68
2024/01/31 02:42:15;;;;;;;0.70;0.70;;;;;;;9.65;100.00;101777.53;4990379;28;20033;-68
2024/01/31 02:44:40;;;;;;;0.80;0.80;;;;;;;9.32;100.00;101735.91;4992726;28;20056;-68
2024/01/31 02:47:06;;;;;;;0.80;0.80;;;;;;;9.63;100.00;101783.72;5009142;28;20029;-68
2024/01/31 02:49:31;;;;;;;0.70;0.70;;;;;;;9.63;100.00;101776.66;5010857;28;20065;-67
2024/01/31 02:51:57;;;;;;;0.60;0.60;;;;;;;9.66;100.00;101773.97;5011145;28;20101;-68
2024/01/31 02:54:22;;;;;;;0.80;0.80;;;;;;;9.66;100.00;101767.75;5011292;28;20885;-68
2024/01/31 02:56:47;;;;;;;0.70;0.70;;;;;;;9.74;100.00;101781.94;5011132;28;20034;-68
2024/01/31 02:59:13;;;;;;;0.75;0.75;;;;;;;9.76;100.00;101781.06;5011751;28;20021;-68
2024/01/31 03:01:45;;;;;;;0.80;0.80;;;;;;;9.76;100.00;101774.84;5011176;28;20046;-68
2024/01/31 03:04:11;;;;;;;0.70;0.70;;;;;;;9.78;100.00;101784.59;5011559;28;20511;-68
2024/01/31 03:06:37;;;;;;;0.70;0.70;;;;;;;9.82;100.00;101783.69;5010206;28;20495;-68
2024/01/31 03:09:02;;;;;;;0.70;0.70;;;;;;;9.83;100.00;101771.31;5011483;28;20067;-68
2024/01/31 03:11:27;;;;;;;0.70;0.70;;;;;;;9.84;100.00;101770.41;5011573;28;20022;-68
2024/01/31 03:13:53;;;;;;;0.80;0.80;;;;;;;9.84;100.00;101768.63;5010014;28;20438;-68
2024/01/31 03:16:18;;;;;;;0.80;0.80;;;;;;;9.83;100.00;101761.56;4992964;28;20076;-68
2024/01/31 03:18:44;;;;;;;0.60;0.60;;;;;;;9.73;100.00;101748.28;5009702;28;20435;-68
2024/01/31 03:21:09;;;;;;;0.70;0.70;;;;;;;9.85;100.00;101770.41;5011228;28;20022;-68
2024/01/31 03:23:35;;;;;;;0.75;0.75;;;;;;;9.85;100.00;101773.06;5010040;28;20756;-67
2024/01/31 03:26:00;;;;;;;0.70;0.70;;;;;;;9.86;100.00;101765.97;5008318;28;20088;-67
2024/01/31 03:28:25;;;;;;;0.70;0.70;;;;;;;9.83;100.00;101758.00;5009716;28;20088;-68
2024/01/31 03:30:51;;;;;;;0.80;0.80;;;;;;;9.81;99.54;101760.69;5007978;28;20089;-68
2024/01/31 03:33:16;;;;;;;0.80;0.80;;;;;;;9.84;100.00;101762.44;5008367;28;20384;-68
2024/01/31 03:35:42;;;;;;;0.60;0.60;;;;;;;9.87;100.00;101768.63;5007994;28;20030;-67
2024/01/31 03:38:08;;;;;;;0.65;0.65;;;;;;;9.66;99.80;101728.81;5008330;28;20041;-68
2024/01/31 03:40:34;;;;;;;0.77;0.77;;;;;;;9.89;99.95;101766.84;4989158;28;20029;-67
2024/01/31 03:42:59;;;;;;;0.80;0.80;;;;;;;9.88;99.71;101773.06;5009585;28;20675;-68
2024/01/31 03:45:25;;;;;;;0.70;0.70;;;;;;;9.78;99.66;101754.47;5009992;28;20032;-68
2024/01/31 03:47:51;;;;;;;0.70;0.70;;;;;;;9.93;99.18;101778.38;5010504;28;20107;-68
2024/01/31 03:50:17;;;;;;;0.65;0.65;;;;;;;9.91;99.06;101777.47;5010592;28;20029;-68
2024/01/31 03:52:42;;;;;;;0.80;0.80;;;;;;;9.92;99.16;101788.09;5010171;28;20160;-68
2024/01/31 03:55:09;;;;;;;0.70;0.70;;;;;;;9.92;98.49;101784.56;5010637;28;20134;-68
2024/01/31 03:57:36;;;;;;;0.80;0.80;;;;;;;9.91;98.68;101789.00;5010427;28;20110;-69
2024/01/31 04:00:08;;;;;;;0.80;0.80;;;;;;;9.94;98.79;101781.03;5010652;28;20034;-67
2024/01/31 04:02:34;;;;;;;0.80;0.80;;;;;;;9.94;99.34;101785.44;5009867;28;20109;-67
2024/01/31 04:04:59;;;;;;;0.80;0.80;;;;;;;9.86;99.02;101777.50;5010211;28;20681;-68
2024/01/31 04:07:27;;;;;;;0.80;0.80;;;;;;;9.93;98.35;101795.22;5010033;28;20049;-68
2024/01/31 04:09:52;;;;;;;0.70;0.70;;;;;;;9.94;98.73;101796.97;5009274;28;20029;-68
2024/01/31 04:12:18;;;;;;;0.80;0.80;;;;;;;9.70;98.67;101770.44;5009961;28;20036;-68
2024/01/31 04:14:43;;;;;;;0.70;0.70;;;;;;;9.95;98.98;101796.06;5010164;28;20036;-68
2024/01/31 04:17:09;;;;;;;0.70;0.70;;;;;;;9.93;98.57;101802.28;5010306;28;20037;-68
2024/01/31 04:19:34;;;;;;;0.70;0.70;;;;;;;9.90;98.36;101800.50;4982562;28;20105;-67
2024/01/31 04:21:59;;;;;;;0.80;0.80;;;;;;;9.87;98.00;101805.84;4990263;28;20278;-68
2024/01/31 04:24:25;;;;;;;0.75;0.75;;;;;;;9.86;98.49;101809.38;5003468;28;20037;-65
2024/01/31 04:26:51;;;;;;;0.73;0.73;;;;;;;9.82;98.97;101807.59;5006312;28;20034;-66
2024/01/31 04:29:17;;;;;;;0.80;0.80;;;;;;;9.84;99.25;101816.47;5003433;28;20053;-65
2024/01/31 04:31:42;;;;;;;0.70;0.70;;;;;;;9.85;98.67;101818.22;5008131;28;20018;-66
2024/01/31 04:34:08;;;;;;;0.80;0.80;;;;;;;9.66;99.23;101779.28;5006848;28;20030;-66
2024/01/31 04:36:34;;;;;;;0.70;0.70;;;;;;;9.72;99.70;101792.56;5007726;28;20068;-65
2024/01/31 04:39:00;;;;;;;0.70;0.70;;;;;;;9.85;99.46;101825.34;5008847;28;20034;-66
2024/01/31 04:41:26;;;;;;;0.70;0.70;;;;;;;9.81;99.77;101823.56;5009770;28;20052;-65
2024/01/31 04:43:53;;;;;;;0.80;0.80;;;;;;;9.79;99.82;101823.56;5006921;28;20484;-65
2024/01/31 04:46:19;;;;;;;0.80;0.80;;;;;;;9.73;99.42;101815.59;5009105;28;20853;-66
2024/01/31 04:48:44;;;;;;;0.70;0.70;;;;;;;9.78;99.73;101820.91;5008489;28;20041;-66
2024/01/31 04:51:10;;;;;;;0.80;0.80;;;;;;;9.55;100.00;101781.06;5009278;28;20029;-66
2024/01/31 04:53:35;;;;;;;0.80;0.80;;;;;;;9.84;99.05;101827.09;5009500;28;20038;-66
2024/01/31 04:56:01;;;;;;;0.70;0.70;;;;;;;9.81;99.22;101826.22;5009423;28;20030;-66
2024/01/31 04:58:26;;;;;;;0.80;0.80;;;;;;;9.78;99.80;101827.13;4991371;28;20480;-66
2024/01/31 05:00:52;;;;;;;0.60;0.60;;;;;;;9.59;99.82;101803.22;5009377;28;20030;-65
2024/01/31 05:03:17;;;;;;;0.70;0.70;;;;;;;9.77;100.00;101835.97;5009050;28;20030;-65
2024/01/31 05:05:43;;;;;;;0.70;0.70;;;;;;;9.78;99.72;101837.75;5009007;28;20033;-65
2024/01/31 05:08:08;;;;;;;0.60;0.60;;;;;;;9.66;100.00;101821.81;5008847;28;20053;-65
2024/01/31 05:10:34;;;;;;;0.70;0.70;;;;;;;9.76;100.00;101843.94;5008586;28;20030;-65
2024/01/31 05:13:00;;;;;;;0.60;0.60;;;;;;;9.74;100.00;101851.91;5006784;28;20048;-65
2024/01/31 05:15:25;;;;;;;0.80;0.80;;;;;;;9.71;100.00;101846.59;5006649;28;20159;-65
2024/01/31 05:17:50;;;;;;;0.70;0.70;;;;;;;9.46;100.00;101812.03;5005344;28;20387;-65
2024/01/31 05:20:16;;;;;;;0.80;0.80;;;;;;;9.63;100.00;101843.06;5004778;28;20034;-65
2024/01/31 05:22:42;;;;;;;0.70;0.70;;;;;;;9.63;100.00;101848.38;5005264;28;20096;-65
2024/01/31 05:25:08;;;;;;;0.80;0.80;;;;;;;9.40;100.00;101812.03;4986117;28;20033;-65
2024/01/31 05:27:34;;;;;;;0.80;0.80;;;;;;;9.61;100.00;101846.59;4987817;28;20018;-65
2024/01/31 05:29:59;;;;;;;0.70;0.70;;;;;;;9.23;100.00;101783.72;5007170;28;20048;-65
2024/01/31 05:32:24;;;;;;;0.70;0.70;;;;;;;9.59;100.00;101846.59;5008572;28;20106;-65
2024/01/31 05:34:50;;;;;;;0.80;0.80;;;;;;;9.59;100.00;101851.91;4990215;28;20407;-68
2024/01/31 05:37:15;;;;;;;0.80;0.80;;;;;;;9.58;100.00;101849.25;5008730;28;20058;-68
2024/01/31 05:39:41;;;;;;;0.80;0.80;;;;;;;9.56;100.00;101851.00;5007891;28;20137;-68
2024/01/31 05:42:06;;;;;;;0.80;0.80;;;;;;;9.56;100.00;101859.88;5009045;28;20033;-68
2024/01/31 05:44:31;;;;;;;0.70;0.70;;;;;;;9.59;100.00;101857.22;4990918;28;20060;-68
2024/01/31 05:46:57;;;;;;;0.80;0.80;;;;;;;9.65;100.00;101859.91;5008470;28;20034;-68
2024/01/31 05:49:22;;;;;;;0.80;0.80;;;;;;;9.60;100.00;101848.38;5007949;28;20095;-68
2024/01/31 05:51:49;;;;;;;0.70;0.70;;;;;;;9.66;100.00;101858.09;5008835;28;20029;-68
2024/01/31 05:54:15;;;;;;;0.80;0.80;;;;;;;9.67;99.69;101859.91;5007404;28;20030;-68
2024/01/31 05:56:41;;;;;;;0.80;0.80;;;;;;;9.63;99.86;101858.09;4988818;28;20025;-68
2024/01/31 05:59:08;;;;;;;0.80;0.80;;;;;;;9.60;100.00;101859.00;5007539;28;20365;-68
2024/01/31 06:01:34;;;;;;;0.80;0.80;;;;;;;9.65;100.00;101861.66;5006771;28;20030;-67
2024/01/31 06:04:00;;;;;;;0.70;0.70;;;;;;;9.71;100.00;101857.22;4991255;28;20527;-68
2024/01/31 06:06:25;;;;;;;0.70;0.70;;;;;;;9.70;100.00;101852.81;5009903;28;20053;-68
2024/01/31 06:08:50;;;;;;;0.80;0.80;;;;;;;9.71;100.00;101859.00;5010308;28;20030;-68
2024/01/31 06:11:16;;;;;;;0.70;0.70;;;;;;;9.74;100.00;101859.88;4990892;28;20029;-68
2024/01/31 06:13:41;;;;;;;0.80;0.80;;;;;;;9.74;100.00;101867.84;5001536;28;20122;-68
2024/01/31 06:16:07;;;;;;;0.70;0.70;;;;;;;9.66;100.00;101861.66;5016132;28;20026;-67
2024/01/31 06:18:34;;;;;;;0.80;0.80;;;;;;;9.65;100.00;101859.91;5016140;28;20029;-67
2024/01/31 06:21:00;;;;;;;0.80;0.80;;;;;;;9.67;99.55;101855.44;5011898;28;20045;-67
2024/01/31 06:23:26;;;;;;;0.80;0.80;;;;;;;9.70;99.68;101866.09;4995218;28;20084;-68
2024/01/31 06:25:51;;;;;;;0.73;0.73;;;;;;;9.70;99.47;101876.72;5024554;28;20523;-67
2024/01/31 06:28:17;;;;;;;0.70;0.70;;;;;;;9.73;100.00;101870.50;5007260;28;20076;-68
2024/01/31 06:30:44;;;;;;;0.75;0.75;;;;;;;9.73;99.81;101871.41;5014026;28;20484;-68
2024/01/31 06:33:14;;;;;;;0.70;0.70;;;;;;;9.74;100.00;101873.16;5010244;28;20029;-68
2024/01/31 06:35:47;;;;;;;0.70;0.70;;;;;;;9.76;99.33;101865.19;5010982;28;20126;-68
2024/01/31 06:38:13;;;;;;;0.65;0.65;;;;;;;9.72;100.00;101868.75;5017505;28;20060;-68
2024/01/31 06:40:38;;;;;;;0.80;0.80;;;;;;;9.45;100.00;101821.81;5020803;28;20484;-68
2024/01/31 06:43:04;;;;;;;0.80;0.80;;;;;;;9.63;99.76;101864.31;5004637;28;20125;-68
2024/01/31 06:45:29;;;;;;;0.80;0.80;;;;;;;9.65;100.00;101862.56;5009119;28;20079;-68
2024/01/31 06:47:54;;;;;;;0.80;0.80;;;;;;;9.40;100.00;101823.56;4994909;28;20112;-68
2024/01/31 06:50:20;;;;;;;0.70;0.70;;;;;;;9.64;100.00;101875.84;5008884;28;20020;-68
2024/01/31 06:52:46;;;;;;;0.70;0.70;;;;;;;9.63;100.00;101869.63;5009959;28;20037;-68
2024/01/31 06:55:13;;;;;;;0.70;0.70;;;;;;;9.64;100.00;101867.88;4992498;28;20099;-68
2024/01/31 06:57:38;;;;;;;0.80;0.80;;;;;;;9.60;100.00;101864.31;5004841;28;20087;-68
2024/01/31 07:00:06;;;;;;;0.77;0.77;;;;;;;9.55;100.00;101879.38;5011725;28;20030;-68
2024/01/31 07:02:31;;;;;;;0.60;0.60;;;;;;;9.54;100.00;101861.63;5013594;28;20068;-68
2024/01/31 07:04:57;;;;;;;0.70;0.70;;;;;;;9.53;100.00;101867.84;5009465;28;20057;-68
2024/01/31 07:07:22;;;;;;;0.80;0.80;;;;;;;9.60;100.00;101874.06;5009870;28;20137;-68
2024/01/31 07:09:47;;;;;;;0.80;0.80;;;;;;;9.67;100.00;101876.69;5023775;28;20443;-68
2024/01/31 07:12:13;;;;;;;0.80;0.80;;;;;;;9.65;100.00;101867.88;5007766;28;20066;-68
2024/01/31 07:14:41;;;;;;;0.70;0.70;;;;;;;9.59;100.00;101869.63;5009683;28;20105;-68
2024/01/31 07:17:06;;;;;;;0.70;0.70;;;;;;;9.56;100.00;101875.81;5009828;28;20034;-68
2024/01/31 07:19:32;;;;;;;0.80;0.80;;;;;;;9.61;100.00;101874.03;5016506;28;20071;-68
2024/01/31 07:21:57;;;;;;;0.70;0.70;;;;;;;9.66;100.00;101879.34;5021830;28;20025;-68
2024/01/31 07:24:23;;;;;;;0.73;0.73;;;;;;;9.68;100.00;101872.28;5013765;28;20429;-68
2024/01/31 07:26:48;;;;;;;0.75;0.75;;;;;;;9.68;100.00;101877.59;4991681;28;20142;-68
2024/01/31 07:29:14;;;;;;;0.77;0.77;;;;;;;9.68;100.00;101878.50;5018305;28;20017;-68
2024/01/31 07:31:40;;;;;;;0.70;0.70;;;;;;;9.66;100.00;101874.03;5008220;28;20014;-68
2024/01/31 07:34:05;;;;;;;0.80;0.80;;;;;;;9.68;100.00;101874.94;5004892;28;20482;-68
2024/01/31 07:36:30;;;;;;;0.80;0.80;;;;;;;9.71;100.00;101873.16;5010153;28;20065;-67
2024/01/31 07:38:56;;;;;;;0.70;0.70;;;;;;;9.74;100.00;101873.16;4999760;28;20048;-68
2024/01/31 07:41:21;;;;;;;0.80;0.80;;;;;;;9.76;100.00;101871.41;4990865;28;20057;-68
2024/01/31 07:43:47;;;;;;;0.60;0.60;;;;;;;9.79;100.00;101876.72;5003128;28;20028;-68
2024/01/31 07:46:12;;;;;;;0.70;0.70;;;;;;;9.80;100.00;101872.28;5017487;28;20031;-68
2024/01/31 07:48:38;;;;;;;0.60;0.60;;;;;;;9.60;100.00;101845.72;4989477;28;20029;-68
2024/01/31 07:51:04;;;;;;;0.70;0.70;;;;;;;9.76;100.00;101868.75;5023714;28;20494;-68
2024/01/31 07:53:30;;;;;;;0.80;0.80;;;;;;;9.80;100.00;101881.13;5017767;28;20093;-68
2024/01/31 07:55:56;;;;;;;0.70;0.70;;;;;;;9.83;100.00;101883.81;4999233;28;20053;-68
2024/01/31 07:58:21;;;;;;;0.75;0.75;;;;;;;9.84;100.00;101880.25;5008139;28;20052;-68
2024/01/31 08:00:47;;;;;;;0.75;0.75;;;;;;;9.65;100.00;101845.72;5009660;28;20113;-68
2024/01/31 08:03:12;;;;;;;0.70;0.70;;;;;;;9.85;100.00;101884.69;5009206;28;20041;-68
2024/01/31 08:05:38;;;;;;;0.80;0.80;;;;;;;9.41;100.00;101808.53;5008125;28;20026;-68
2024/01/31 08:08:04;;;;;;;0.90;0.90;;;;;;;9.58;100.00;101849.25;5007043;28;20069;-68
2024/01/31 08:10:29;;;;;;;0.80;0.80;;;;;;;9.81;100.00;101877.59;5009756;28;20025;-68
2024/01/31 08:12:54;;;;;;;0.80;0.80;;;;;;;9.79;100.00;101871.41;5009112;28;20041;-69
2024/01/31 08:15:21;;;;;;;0.77;0.77;;;;;;;9.86;100.00;101881.16;5009653;28;20033;-69
2024/01/31 08:17:47;;;;;;;0.68;0.68;;;;;;;9.86;100.00;101883.81;5008338;28;20018;-69
2024/01/31 08:20:13;;;;;;;0.80;0.80;;;;;;;9.83;100.00;101873.19;5007985;28;20079;-69
2024/01/31 08:22:38;;;;;;;0.80;0.80;;;;;;;9.86;100.00;101872.28;5006885;28;20088;-68
2024/01/31 08:25:04;;;;;;;0.70;0.70;;;;;;;9.89;100.00;101867.84;4990115;28;20030;-68
2024/01/31 08:27:30;;;;;;;0.70;0.70;;;;;;;9.96;100.00;101874.94;4988359;28;20407;-69
2024/01/31 08:29:56;;;;;;;0.70;0.70;;;;;;;10.00;100.00;101882.03;5008050;28;20026;-68
2024/01/31 08:32:21;;;;;;;0.70;0.70;;;;;;;10.00;100.00;101882.03;5007100;28;20040;-68
2024/01/31 08:34:47;;;;;;;0.77;0.77;;;;;;;10.07;100.00;101883.78;5008446;28;20080;-68
2024/01/31 08:37:13;;;;;;;0.77;0.77;;;;;;;10.00;100.00;101867.88;5007489;28;20033;-68
2024/01/31 08:39:38;;;;;;;0.70;0.70;;;;;;;10.17;100.00;101884.69;5008738;28;20033;-68
2024/01/31 08:42:04;;;;;;;0.80;0.80;;;;;;;10.22;100.00;101883.81;4989049;28;20076;-68
2024/01/31 08:44:29;;;;;;;0.70;0.70;;;;;;;10.21;100.00;101879.38;5007571;28;20081;-68
2024/01/31 08:46:55;;;;;;;0.70;0.70;;;;;;;10.28;100.00;101882.94;5009399;28;20034;-68
2024/01/31 08:49:21;;;;;;;0.60;0.60;;;;;;;10.30;100.00;101876.72;5008446;28;20061;-68
2024/01/31 08:51:47;;;;;;;0.80;0.80;;;;;;;10.37;99.49;101882.91;5009219;28;20026;-68
2024/01/31 08:54:13;;;;;;;0.60;0.60;;;;;;;10.38;99.87;101885.56;5009141;28;20037;-68
2024/01/31 08:56:38;;;;;;;0.75;0.75;;;;;;;10.17;98.88;101831.50;5009754;28;20026;-68
2024/01/31 08:59:04;;;;;;;0.80;0.80;;;;;;;10.56;98.74;101885.50;5009494;28;20144;-69
2024/01/31 09:01:29;;;;;;;0.80;0.80;;;;;;;10.64;98.05;101889.03;5008286;28;20038;-68
2024/01/31 09:03:55;;;;;;;0.70;0.70;;;;;;;10.51;98.51;101858.03;5009678;28;20034;-68
2024/01/31 09:06:21;;;;;;;0.80;0.80;;;;;;;10.46;97.85;101827.88;5008432;28;20033;-68
2024/01/31 09:08:48;;;;;;;0.80;0.80;;;;;;;10.89;97.38;101886.28;5009294;28;20022;-67
2024/01/31 09:11:14;;;;;;;0.80;0.80;;;;;;;10.97;96.92;101880.03;5008293;28;20025;-68
2024/01/31 09:13:40;;;;;;;0.75;0.75;;;;;;;11.02;96.48;101877.34;5009118;28;20501;-68
2024/01/31 09:16:06;;;;;;;0.70;0.70;;;;;;;11.10;96.21;101880.88;5008620;28;20022;-68
2024/01/31 09:18:31;;;;;;;0.77;0.77;;;;;;;11.21;95.54;101882.56;5007291;28;20040;-68
2024/01/31 09:20:57;;;;;;;0.70;0.70;;;;;;;11.27;96.04;101877.22;5009102;28;20109;-68
2024/01/31 09:23:22;;;;;;;0.80;0.80;;;;;;;11.45;96.01;101870.91;5008651;28;20040;-68
2024/01/31 09:25:49;;;;;;;0.70;0.70;;;;;;;11.41;95.40;101831.84;5008297;28;20032;-69
2024/01/31 09:28:15;;;;;;;0.70;0.70;;;;;;;11.74;95.07;101861.81;5006622;28;20117;-69
2024/01/31 09:30:43;;;;;;;0.70;0.70;;;;;;;12.22;94.13;101865.84;5007102;28;20018;-68
2024/01/31 09:33:09;;;;;;;0.70;0.70;;;;;;;12.40;90.42;101870.09;5006711;28;20026;-68
2024/01/31 09:35:34;;;;;;;0.70;0.70;;;;;;;12.40;89.32;101873.66;5006909;28;20380;-68
2024/01/31 09:37:59;;;;;;;0.70;0.70;;;;;;;12.36;88.84;101877.25;5008588;28;20033;-69
2024/01/31 09:40:25;;;;;;;0.68;0.68;;;;;;;12.32;89.45;101879.97;5008112;28;20042;-69
2024/01/31 09:42:54;;;;;;;0.60;0.60;;;;;;;12.27;88.65;101879.13;5008917;28;20038;-68
2024/01/31 09:45:21;;;;;;;0.60;0.60;;;;;;;12.31;89.06;101872.84;5008427;28;20037;-69
2024/01/31 09:47:47;;;;;;;0.70;0.70;;;;;;;12.22;88.95;101873.84;5008738;28;20033;-69
2024/01/31 09:50:13;;;;;;;0.60;0.60;;;;;;;12.04;89.43;101834.00;5008229;28;20318;-68
2024/01/31 09:52:42;;;;;;;0.60;0.60;;;;;;;12.35;89.56;101874.59;5008838;28;20096;-68
2024/01/31 09:55:11;;;;;;;0.68;0.68;;;;;;;12.40;89.18;101870.09;4991426;28;20037;-68
2024/01/31 09:57:39;;;;;;;0.70;0.70;;;;;;;12.40;89.58;101872.75;4990030;28;20030;-69
2024/01/31 10:00:05;;;;;;;0.63;0.63;;;;;;;12.44;89.60;101867.38;5004302;28;20452;-68
2024/01/31 10:02:31;;;;;;;0.60;0.60;;;;;;;12.51;89.50;101866.41;5007354;28;20026;-69
2024/01/31 10:04:57;;;;;;;0.70;0.70;;;;;;;12.51;89.53;101866.41;5007674;28;20443;-68
2024/01/31 10:07:24;;;;;;;0.60;0.60;;;;;;;12.44;89.55;101870.03;5007253;28;20053;-68
2024/01/31 10:09:54;;;;;;;0.60;0.60;;;;;;;12.47;89.74;101864.66;5006742;28;20641;-69
2024/01/31 10:12:20;;;;;;;0.70;0.70;;;;;;;12.51;90.28;101858.41;5007412;28;20037;-68
2024/01/31 10:14:48;;;;;;;0.60;0.60;;;;;;;12.69;90.70;101850.19;5007803;28;20033;-68
2024/01/31 10:17:14;;;;;;;0.60;0.60;;;;;;;12.74;90.48;101847.44;5007539;28;20037;-69
2024/01/31 10:19:40;;;;;;;0.60;0.60;;;;;;;12.78;90.30;101844.72;5007502;28;20103;-68
2024/01/31 10:22:06;;;;;;;0.60;0.60;;;;;;;12.85;89.58;101851.75;5006573;28;20575;-68
2024/01/31 10:24:32;;;;;;;0.70;0.70;;;;;;;12.81;89.31;101852.72;5007002;28;20032;-68
2024/01/31 10:26:57;;;;;;;0.60;0.60;;;;;;;12.82;89.86;101851.78;5006190;28;20447;-69
2024/01/31 10:29:23;;;;;;;0.57;0.57;;;;;;;12.81;89.14;101849.16;5006908;28;20124;-68
2024/01/31 10:31:52;;;;;;;0.70;0.70;;;;;;;12.83;89.88;101850.88;5006355;28;20614;-68
2024/01/31 10:34:18;;;;;;;0.60;0.60;;;;;;;13.05;89.81;101849.75;4989466;28;20032;-69
2024/01/31 10:36:45;;;;;;;0.65;0.65;;;;;;;13.29;89.07;101847.63;5006441;28;20026;-69
2024/01/31 10:39:13;;;;;;;0.65;0.65;;;;;;;13.49;88.12;101848.22;5007289;28;20042;-69
2024/01/31 10:41:42;;;;;;;0.60;0.60;;;;;;;13.59;87.20;101844.50;5006782;28;20034;-69
2024/01/31 10:44:13;;;;;;;0.60;0.60;;;;;;;13.70;85.99;101850.56;5007585;28;20101;-69
2024/01/31 10:46:39;;;;;;;0.60;0.60;;;;;;;13.59;85.45;101807.94;5008284;28;20084;-69
2024/01/31 10:49:05;;;;;;;0.60;0.60;;;;;;;13.80;84.45;101830.78;5008369;28;20546;-68
2024/01/31 10:51:33;;;;;;;0.60;0.60;;;;;;;13.74;83.88;101826.41;5011677;28;20057;-69
2024/01/31 10:54:00;;;;;;;0.60;0.60;;;;;;;13.96;83.92;101816.22;5011565;28;20044;-69
2024/01/31 10:56:26;;;;;;;0.50;0.50;;;;;;;14.03;84.06;101810.75;4990787;28;20057;-69
2024/01/31 10:58:52;;;;;;;0.50;0.50;;;;;;;14.34;82.21;101814.66;5011785;28;20037;-69
2024/01/31 11:01:17;;;;;;;0.60;0.60;;;;;;;14.21;80.68;101782.75;4997963;28;20026;-68
2024/01/31 11:03:46;;;;;;;0.52;0.52;;;;;;;14.36;80.50;101806.59;4991935;28;20038;-69
2024/01/31 11:06:12;;;;;;;0.50;0.50;;;;;;;14.65;79.85;101804.19;4992739;28;20030;-69
2024/01/31 11:08:41;;;;;;;0.50;0.50;;;;;;;14.57;80.28;101774.00;4991945;28;20068;-69
2024/01/31 11:11:10;;;;;;;0.50;0.50;;;;;;;14.77;78.54;101793.22;5000171;28;20208;-69
2024/01/31 11:13:36;;;;;;;0.50;0.50;;;;;;;14.66;78.49;101795.25;5008715;28;20042;-69
2024/01/31 11:16:04;;;;;;;0.50;0.50;;;;;;;14.62;78.01;101782.84;5009593;28;20033;-68
2024/01/31 11:18:29;;;;;;;0.50;0.50;;;;;;;14.41;77.55;101751.16;5008966;28;20025;-69
2024/01/31 11:20:56;;;;;;;0.50;0.50;;;;;;;14.63;77.47;101787.25;5009187;28;20087;-69